Time;durP1;ratioP1;P1;durP2;ratioP2;P2;SDS_P1;SDS_P2;PMS_P1;PMS_P2;Temp;Humidity;BMP_temperature;BMP_pressure;BME280_temperature;BME280_humidity;BME280_pressure;Samples;Min_cycle;Max_cycle;Signal;HPM_P1;HPM_P2
2022/02/14 00:01:36;;;;;;;10.30;3.10;;;;;;;;;;5037608;28;20162;-75
2022/02/14 00:04:01;;;;;;;7.13;2.97;;;;;;;;;;5045434;28;20029;-75
2022/02/14 00:06:27;;;;;;;6.18;2.75;;;;;;;;;;5057433;28;20035;-75
2022/02/14 00:08:52;;;;;;;6.13;3.10;;;;;;;;;;5042343;28;20029;-75
2022/02/14 00:11:18;;;;;;;5.55;3.20;;;;;;;;;;5042385;28;20021;-75
2022/02/14 00:13:43;;;;;;;6.00;2.90;;;;;;;;;;5050112;28;20374;-75
2022/02/14 00:16:09;;;;;;;6.60;3.20;;;;;;;;;;5050995;28;20444;-74
2022/02/14 00:18:34;;;;;;;6.32;3.10;;;;;;;;;;5050278;28;20021;-74
2022/02/14 00:21:00;;;;;;;6.60;3.28;;;;;;;;;;5052165;28;20271;-75
2022/02/14 00:23:25;;;;;;;7.07;3.40;;;;;;;;;;5054862;28;20052;-73
2022/02/14 00:25:51;;;;;;;5.47;3.10;;;;;;;;;;5055082;28;20033;-73
2022/02/14 00:28:16;;;;;;;7.25;3.30;;;;;;;;;;5052568;28;20029;-74
2022/02/14 00:30:44;;;;;;;9.48;3.95;;;;;;;;;;5051596;28;20094;-74
2022/02/14 00:33:10;;;;;;;11.60;4.10;;;;;;;;;;5050752;28;20025;-73
2022/02/14 00:35:36;;;;;;;12.27;3.70;;;;;;;;;;5048408;28;20438;-73
2022/02/14 00:38:03;;;;;;;6.25;2.60;;;;;;;;;;5048150;28;20045;-74
2022/02/14 00:40:28;;;;;;;7.13;3.15;;;;;;;;;;5049657;28;20028;-76
2022/02/14 00:42:54;;;;;;;7.40;3.17;;;;;;;;;;5046895;28;20029;-76
2022/02/14 00:45:20;;;;;;;4.80;2.90;;;;;;;;;;5049762;28;20078;-76
2022/02/14 00:47:45;;;;;;;5.28;3.17;;;;;;;;;;5042993;28;20033;-76
2022/02/14 00:50:11;;;;;;;7.18;3.38;;;;;;;;;;5046383;28;20115;-76
2022/02/14 00:52:40;;;;;;;7.07;3.10;;;;;;;;;;5049361;28;20120;-76
2022/02/14 00:55:11;;;;;;;5.10;2.70;;;;;;;;;;5053680;28;20025;-76
2022/02/14 00:57:36;;;;;;;5.45;2.83;;;;;;;;;;5044718;28;20378;-75
2022/02/14 01:00:05;;;;;;;8.27;2.83;;;;;;;;;;5069921;28;20153;-75
2022/02/14 01:02:30;;;;;;;5.00;2.70;;;;;;;;;;5058425;28;20040;-75
2022/02/14 01:04:55;;;;;;;8.48;2.90;;;;;;;;;;5054026;28;20029;-75
2022/02/14 01:07:21;;;;;;;5.13;2.65;;;;;;;;;;5049372;28;20020;-75
2022/02/14 01:09:46;;;;;;;6.00;2.80;;;;;;;;;;5050633;28;20031;-75
2022/02/14 01:12:12;;;;;;;6.85;2.58;;;;;;;;;;5050976;28;20052;-75
2022/02/14 01:14:37;;;;;;;6.45;2.83;;;;;;;;;;5050270;28;20513;-75
2022/02/14 01:17:03;;;;;;;8.10;3.33;;;;;;;;;;5052547;28;20036;-76
2022/02/14 01:19:28;;;;;;;5.53;2.28;;;;;;;;;;5051636;28;20076;-76
2022/02/14 01:21:54;;;;;;;4.93;2.67;;;;;;;;;;5048744;28;20214;-76
2022/02/14 01:24:22;;;;;;;5.65;2.83;;;;;;;;;;5049466;28;20094;-76
2022/02/14 01:26:47;;;;;;;5.75;2.70;;;;;;;;;;5053559;28;20089;-76
2022/02/14 01:29:13;;;;;;;4.72;2.78;;;;;;;;;;5050318;28;20038;-76
2022/02/14 01:31:38;;;;;;;3.55;2.15;;;;;;;;;;5051366;28;20088;-76
2022/02/14 01:34:04;;;;;;;4.13;2.20;;;;;;;;;;5046748;28;20084;-76
2022/02/14 01:36:29;;;;;;;7.82;2.70;;;;;;;;;;5050859;28;20052;-75
2022/02/14 01:38:55;;;;;;;6.65;2.53;;;;;;;;;;5049404;28;20108;-75
2022/02/14 01:41:23;;;;;;;3.75;1.90;;;;;;;;;;5048035;28;20029;-75
2022/02/14 01:43:48;;;;;;;3.30;1.95;;;;;;;;;;5049215;28;20053;-75
2022/02/14 01:46:13;;;;;;;5.85;2.10;;;;;;;;;;5049856;28;20063;-76
2022/02/14 01:48:42;;;;;;;3.88;2.40;;;;;;;;;;5048679;28;20501;-76
2022/02/14 01:51:09;;;;;;;4.97;2.10;;;;;;;;;;5050649;28;20064;-75
2022/02/14 01:53:34;;;;;;;5.20;2.08;;;;;;;;;;5047680;28;20064;-76
2022/02/14 01:56:03;;;;;;;6.18;2.20;;;;;;;;;;5052725;28;20079;-75
2022/02/14 01:58:28;;;;;;;5.15;2.20;;;;;;;;;;5049970;28;20043;-75
2022/02/14 02:00:54;;;;;;;5.13;2.15;;;;;;;;;;5043437;28;20056;-76
2022/02/14 02:03:21;;;;;;;4.43;2.20;;;;;;;;;;5048864;28;20119;-76
2022/02/14 02:05:49;;;;;;;3.95;2.10;;;;;;;;;;5048126;28;20419;-76
2022/02/14 02:08:15;;;;;;;6.07;2.70;;;;;;;;;;5049709;28;20031;-76
2022/02/14 02:10:41;;;;;;;3.58;2.13;;;;;;;;;;5050430;28;20017;-76
2022/02/14 02:13:09;;;;;;;6.35;2.15;;;;;;;;;;5049036;28;20120;-76
2022/02/14 02:15:37;;;;;;;3.83;1.92;;;;;;;;;;5050407;28;20048;-76
2022/02/14 02:18:06;;;;;;;3.88;2.28;;;;;;;;;;5048571;28;20033;-75
2022/02/14 02:20:33;;;;;;;3.88;2.20;;;;;;;;;;5051487;28;20430;-76
2022/02/14 02:22:58;;;;;;;3.55;2.10;;;;;;;;;;5046775;28;20040;-76
2022/02/14 02:25:24;;;;;;;5.78;2.22;;;;;;;;;;5050700;28;20090;-76
2022/02/14 02:27:49;;;;;;;4.22;2.03;;;;;;;;;;5048379;28;20028;-75
2022/02/14 02:30:22;;;;;;;4.00;2.17;;;;;;;;;;5051816;28;20040;-76
2022/02/14 02:32:49;;;;;;;2.28;1.67;;;;;;;;;;5045796;28;20386;-75
2022/02/14 02:35:15;;;;;;;5.20;2.67;;;;;;;;;;5038107;28;20025;-75
2022/02/14 02:37:40;;;;;;;4.72;2.10;;;;;;;;;;5046603;28;20039;-75
2022/02/14 02:40:07;;;;;;;4.40;2.00;;;;;;;;;;5046949;28;20025;-75
2022/02/14 02:42:33;;;;;;;3.03;1.77;;;;;;;;;;5047616;28;20028;-74
2022/02/14 02:44:59;;;;;;;4.63;1.98;;;;;;;;;;5050196;28;20087;-75
2022/02/14 02:47:26;;;;;;;3.50;1.80;;;;;;;;;;5051506;28;20066;-75
2022/02/14 02:49:54;;;;;;;7.68;2.00;;;;;;;;;;5042060;28;20345;-75
2022/02/14 02:52:20;;;;;;;4.25;2.45;;;;;;;;;;5041500;28;20057;-74
2022/02/14 02:54:47;;;;;;;7.43;2.35;;;;;;;;;;5061794;28;20029;-75
2022/02/14 02:57:13;;;;;;;4.32;2.20;;;;;;;;;;5045142;28;20033;-75
2022/02/14 02:59:40;;;;;;;3.65;2.10;;;;;;;;;;5049747;28;20029;-74
2022/02/14 03:02:08;;;;;;;4.78;2.00;;;;;;;;;;5047180;28;20021;-74
2022/02/14 03:04:34;;;;;;;4.47;1.90;;;;;;;;;;5047158;28;20060;-75
2022/02/14 03:07:00;;;;;;;5.30;2.17;;;;;;;;;;5052109;28;20474;-75
2022/02/14 03:09:25;;;;;;;4.85;1.80;;;;;;;;;;5049016;28;20029;-74
2022/02/14 03:11:51;;;;;;;5.53;2.20;;;;;;;;;;5044374;28;20033;-74
2022/02/14 03:14:19;;;;;;;4.50;1.90;;;;;;;;;;5049053;28;20397;-74
2022/02/14 03:16:45;;;;;;;3.25;2.05;;;;;;;;;;5049519;28;20390;-75
2022/02/14 03:19:11;;;;;;;4.75;2.00;;;;;;;;;;5050302;28;20071;-75
2022/02/14 03:21:37;;;;;;;4.57;1.95;;;;;;;;;;5045694;28;20033;-75
2022/02/14 03:24:03;;;;;;;3.92;2.13;;;;;;;;;;5050079;28;20032;-75
2022/02/14 03:26:32;;;;;;;3.83;2.05;;;;;;;;;;5050963;28;20666;-75
2022/02/14 03:28:59;;;;;;;4.53;2.05;;;;;;;;;;5048237;28;20029;-75
2022/02/14 03:31:25;;;;;;;4.10;2.08;;;;;;;;;;5048796;28;20381;-75
2022/02/14 03:33:52;;;;;;;3.70;1.90;;;;;;;;;;5047181;28;20121;-74
2022/02/14 03:36:19;;;;;;;4.47;2.33;;;;;;;;;;5047317;28;20505;-75
2022/02/14 03:38:45;;;;;;;4.85;2.15;;;;;;;;;;5041273;28;20061;-75
2022/02/14 03:41:11;;;;;;;3.78;2.05;;;;;;;;;;5047407;28;20021;-74
2022/02/14 03:43:39;;;;;;;5.22;2.08;;;;;;;;;;5061010;28;20555;-75
2022/02/14 03:46:05;;;;;;;3.70;1.90;;;;;;;;;;5066327;28;20021;-75
2022/02/14 03:48:31;;;;;;;6.65;2.00;;;;;;;;;;5051045;28;20036;-75
2022/02/14 03:50:57;;;;;;;6.05;2.20;;;;;;;;;;5047343;28;20039;-74
2022/02/14 03:53:23;;;;;;;4.57;2.28;;;;;;;;;;5052025;28;20025;-75
2022/02/14 03:55:49;;;;;;;6.25;2.00;;;;;;;;;;5052376;28;20078;-75
2022/02/14 03:58:15;;;;;;;5.90;2.08;;;;;;;;;;5051340;28;20116;-74
2022/02/14 04:00:41;;;;;;;3.25;2.28;;;;;;;;;;5051579;28;20104;-74
2022/02/14 04:03:07;;;;;;;4.75;2.25;;;;;;;;;;5051267;28;20085;-74
2022/02/14 04:05:33;;;;;;;6.25;2.97;;;;;;;;;;5051225;28;20024;-75
2022/02/14 04:07:59;;;;;;;7.15;2.40;;;;;;;;;;5049486;28;20026;-75
2022/02/14 04:10:25;;;;;;;3.95;2.10;;;;;;;;;;5051321;28;20032;-75
2022/02/14 04:12:54;;;;;;;2.85;1.98;;;;;;;;;;5052519;28;20021;-75
2022/02/14 04:15:20;;;;;;;5.70;2.47;;;;;;;;;;5049035;28;20099;-75
2022/02/14 04:17:45;;;;;;;5.93;2.88;;;;;;;;;;5050270;28;20025;-75
2022/02/14 04:20:12;;;;;;;4.63;2.50;;;;;;;;;;5048984;28;20353;-74
2022/02/14 04:22:38;;;;;;;4.07;2.10;;;;;;;;;;5049036;28;20130;-76
2022/02/14 04:25:10;;;;;;;3.17;2.08;;;;;;;;;;5052919;28;20501;-76
2022/02/14 04:27:35;;;;;;;6.85;2.35;;;;;;;;;;5050015;28;20029;-76
2022/02/14 04:30:00;;;;;;;4.38;2.45;;;;;;;;;;5054033;28;20079;-76
2022/02/14 04:32:26;;;;;;;3.50;1.80;;;;;;;;;;5055469;28;20236;-76
2022/02/14 04:34:51;;;;;;;6.13;2.60;;;;;;;;;;5051680;28;20117;-76
2022/02/14 04:37:17;;;;;;;4.28;1.98;;;;;;;;;;5046812;28;20331;-75
2022/02/14 04:39:45;;;;;;;5.53;2.60;;;;;;;;;;5049196;28;20024;-76
2022/02/14 04:42:10;;;;;;;4.00;2.15;;;;;;;;;;5046148;28;20025;-76
2022/02/14 04:44:36;;;;;;;4.70;2.30;;;;;;;;;;5047333;28;20037;-76
2022/02/14 04:47:01;;;;;;;4.38;2.28;;;;;;;;;;5047698;28;20025;-76
2022/02/14 04:49:27;;;;;;;4.65;2.72;;;;;;;;;;5053470;28;20101;-76
2022/02/14 04:51:52;;;;;;;4.65;2.20;;;;;;;;;;5050698;28;20048;-76
2022/02/14 04:54:18;;;;;;;4.60;2.40;;;;;;;;;;5050585;28;20102;-76
2022/02/14 04:56:46;;;;;;;4.75;2.28;;;;;;;;;;5068076;28;20032;-76
2022/02/14 04:59:14;;;;;;;5.00;2.42;;;;;;;;;;5048822;28;20083;-76
2022/02/14 05:01:39;;;;;;;5.25;2.85;;;;;;;;;;5049717;28;20098;-75
2022/02/14 05:04:05;;;;;;;3.70;2.35;;;;;;;;;;5049464;28;20033;-76
2022/02/14 05:06:33;;;;;;;4.80;2.40;;;;;;;;;;5052003;28;20025;-75
2022/02/14 05:08:59;;;;;;;8.25;2.75;;;;;;;;;;5060951;28;20382;-76
2022/02/14 05:11:27;;;;;;;8.10;2.75;;;;;;;;;;5044948;28;20034;-75
2022/02/14 05:13:54;;;;;;;4.75;2.75;;;;;;;;;;5053313;28;20025;-75
2022/02/14 05:16:24;;;;;;;4.57;2.28;;;;;;;;;;5050518;28;20037;-75
2022/02/14 05:18:55;;;;;;;3.45;1.90;;;;;;;;;;5043962;28;20022;-75
2022/02/14 05:21:23;;;;;;;4.50;2.30;;;;;;;;;;5049243;28;20177;-75
2022/02/14 05:23:51;;;;;;;5.07;2.55;;;;;;;;;;5050942;28;20028;-75
2022/02/14 05:26:17;;;;;;;7.78;2.55;;;;;;;;;;5052018;28;20032;-75
2022/02/14 05:28:42;;;;;;;4.97;2.50;;;;;;;;;;5050425;28;20032;-75
2022/02/14 05:31:08;;;;;;;5.13;2.20;;;;;;;;;;5045470;28;20091;-75
2022/02/14 05:33:35;;;;;;;3.45;2.05;;;;;;;;;;5050412;28;20032;-75
2022/02/14 05:36:03;;;;;;;4.95;2.10;;;;;;;;;;5062749;28;20043;-75
2022/02/14 05:38:28;;;;;;;5.47;2.47;;;;;;;;;;5046186;28;20126;-76
2022/02/14 05:40:54;;;;;;;6.97;2.72;;;;;;;;;;5065654;28;20031;-75
2022/02/14 05:43:19;;;;;;;8.63;3.60;;;;;;;;;;5048038;28;20374;-74
2022/02/14 05:45:45;;;;;;;8.73;3.45;;;;;;;;;;5048212;28;20399;-78
2022/02/14 05:48:10;;;;;;;7.15;3.22;;;;;;;;;;5051390;28;20032;-78
2022/02/14 05:50:36;;;;;;;5.60;2.28;;;;;;;;;;5050094;28;20129;-79
2022/02/14 05:53:01;;;;;;;7.32;2.50;;;;;;;;;;5050459;28;20432;-76
2022/02/14 05:55:27;;;;;;;6.65;3.00;;;;;;;;;;5051256;28;20025;-77
2022/02/14 05:57:55;;;;;;;6.28;2.70;;;;;;;;;;5048583;28;20171;-77
2022/02/14 06:00:20;;;;;;;4.80;2.55;;;;;;;;;;5052252;28;20124;-77
2022/02/14 06:02:48;;;;;;;6.15;2.55;;;;;;;;;;5047686;28;20601;-77
2022/02/14 06:05:14;;;;;;;7.80;2.50;;;;;;;;;;5049372;28;20035;-77
2022/02/14 06:07:39;;;;;;;5.07;2.47;;;;;;;;;;5050162;28;20485;-77
2022/02/14 06:10:05;;;;;;;6.32;2.60;;;;;;;;;;5046401;28;20029;-75
2022/02/14 06:12:30;;;;;;;7.78;2.80;;;;;;;;;;5047368;28;20507;-74
2022/02/14 06:14:58;;;;;;;7.90;3.13;;;;;;;;;;5044831;28;20029;-74
2022/02/14 06:17:23;;;;;;;5.25;2.50;;;;;;;;;;5062414;28;20044;-74
2022/02/14 06:19:49;;;;;;;4.38;2.33;;;;;;;;;;5050968;28;20020;-75
2022/02/14 06:22:14;;;;;;;7.93;2.75;;;;;;;;;;5065323;28;20025;-75
2022/02/14 06:24:42;;;;;;;4.43;2.70;;;;;;;;;;5049534;28;20052;-74
2022/02/14 06:27:08;;;;;;;4.30;2.55;;;;;;;;;;5047862;28;20033;-73
2022/02/14 06:29:34;;;;;;;4.93;2.42;;;;;;;;;;5047117;28;20491;-74
2022/02/14 06:32:00;;;;;;;5.50;2.42;;;;;;;;;;5043429;28;20033;-75
2022/02/14 06:35:02;;;;;;;8.55;2.70;;;;;;;;;;5045494;28;20116;-75
2022/02/14 06:37:36;;;;;;;7.45;2.90;;;;;;;;;;5046623;28;20503;-76
2022/02/14 06:40:07;;;;;;;6.07;2.88;;;;;;;;;;5056463;28;20012;-74
2022/02/14 06:42:33;;;;;;;9.82;3.25;;;;;;;;;;5054151;28;20029;-76
2022/02/14 06:44:58;;;;;;;7.13;2.95;;;;;;;;;;5043959;28;20047;-76
2022/02/14 06:47:25;;;;;;;6.28;2.65;;;;;;;;;;5047422;28;20032;-74
2022/02/14 06:49:50;;;;;;;5.82;3.10;;;;;;;;;;5048026;28;20036;-78
2022/02/14 06:52:16;;;;;;;9.20;2.80;;;;;;;;;;5045055;28;20037;-75
2022/02/14 06:54:41;;;;;;;7.50;2.80;;;;;;;;;;5047490;28;20036;-74
2022/02/14 06:57:07;;;;;;;9.77;2.72;;;;;;;;;;5052887;28;20090;-76
2022/02/14 06:59:33;;;;;;;6.00;2.72;;;;;;;;;;5048662;28;20653;-76
2022/02/14 07:01:59;;;;;;;8.07;2.92;;;;;;;;;;5047446;28;20115;-75
2022/02/14 07:04:26;;;;;;;9.77;3.45;;;;;;;;;;5046232;28;20105;-75
2022/02/14 07:06:56;;;;;;;9.73;3.38;;;;;;;;;;5049590;28;20059;-74
2022/02/14 07:15:31;;;;;;;4.03;2.35;;;;;;;;;;5046866;28;20496;-75
2022/02/14 07:21:17;;;;;;;6.63;2.38;;;;;;;;;;5044396;28;20512;-75
2022/02/14 07:23:46;;;;;;;9.02;4.07;;;;;;;;;;5043224;28;20497;-75
2022/02/14 07:26:14;;;;;;;7.35;3.33;;;;;;;;;;5048503;28;20037;-75
2022/02/14 07:33:43;;;;;;;9.05;2.63;;;;;;;;;;5033520;28;20064;-74
2022/02/14 07:36:09;;;;;;;4.95;2.30;;;;;;;;;;5037969;28;20043;-74
2022/02/14 07:38:34;;;;;;;10.00;3.20;;;;;;;;;;5053740;28;20033;-74
2022/02/14 07:41:00;;;;;;;4.90;3.03;;;;;;;;;;5034275;28;20032;-74
2022/02/14 07:43:26;;;;;;;6.28;2.78;;;;;;;;;;5021300;28;20123;-74
2022/02/14 07:45:51;;;;;;;9.13;2.90;;;;;;;;;;5038674;28;20515;-74
2022/02/14 07:48:19;;;;;;;6.57;2.50;;;;;;;;;;5039582;28;20041;-75
2022/02/14 07:50:47;;;;;;;5.35;2.88;;;;;;;;;;5019701;28;20603;-74
2022/02/14 07:53:16;;;;;;;6.80;2.90;;;;;;;;;;5032166;28;20029;-75
2022/02/14 07:55:41;;;;;;;6.03;2.88;;;;;;;;;;5015267;28;20029;-75
2022/02/14 07:58:07;;;;;;;16.10;3.05;;;;;;;;;;5034828;28;20086;-74
2022/02/14 08:00:32;;;;;;;6.53;2.63;;;;;;;;;;5036701;28;20064;-74
2022/02/14 08:02:58;;;;;;;8.02;3.15;;;;;;;;;;5039580;28;20035;-74
2022/02/14 08:05:23;;;;;;;6.35;2.50;;;;;;;;;;5037470;28;20393;-74
2022/02/14 08:07:49;;;;;;;7.65;2.60;;;;;;;;;;5036502;28;20025;-74
2022/02/14 08:10:15;;;;;;;5.07;2.78;;;;;;;;;;5037723;28;20021;-74
2022/02/14 08:12:40;;;;;;;4.95;2.40;;;;;;;;;;5036100;28;20033;-74
2022/02/14 08:15:06;;;;;;;6.22;2.85;;;;;;;;;;5037125;28;20090;-74
2022/02/14 08:17:35;;;;;;;7.40;3.13;;;;;;;;;;5024834;28;20183;-74
2022/02/14 08:20:01;;;;;;;9.13;2.80;;;;;;;;;;5037433;28;20082;-74
2022/02/14 08:22:27;;;;;;;7.32;2.55;;;;;;;;;;5025227;28;20029;-74
2022/02/14 08:24:53;;;;;;;6.45;2.58;;;;;;;;;;5039116;28;20049;-74
2022/02/14 08:27:20;;;;;;;13.15;3.72;;;;;;;;;;5026676;28;20036;-74
2022/02/14 08:29:46;;;;;;;7.63;3.35;;;;;;;;;;5038334;28;20071;-76
2022/02/14 08:32:16;;;;;;;8.05;2.70;;;;;;;;;;5018369;28;20462;-74
2022/02/14 08:34:41;;;;;;;11.20;2.85;;;;;;;;;;5033289;28;20056;-75
2022/02/14 08:37:11;;;;;;;6.63;2.85;;;;;;;;;;5019437;28;20110;-73
2022/02/14 08:39:43;;;;;;;6.55;2.92;;;;;;;;;;5031912;28;20377;-75
2022/02/14 08:42:09;;;;;;;9.05;3.08;;;;;;;;;;5029030;28;20199;-74
2022/02/14 08:44:34;;;;;;;6.68;2.58;;;;;;;;;;5016039;28;20041;-74
2022/02/14 08:47:00;;;;;;;7.72;3.67;;;;;;;;;;5034209;28;20025;-74
2022/02/14 08:49:29;;;;;;;9.10;3.10;;;;;;;;;;5037313;28;20061;-75
2022/02/14 08:51:56;;;;;;;6.63;3.20;;;;;;;;;;5040638;28;20039;-73
2022/02/14 08:54:22;;;;;;;11.13;3.17;;;;;;;;;;5019521;28;20031;-73
2022/02/14 08:56:48;;;;;;;7.25;2.95;;;;;;;;;;5043114;28;20059;-73
2022/02/14 08:59:19;;;;;;;10.73;3.15;;;;;;;;;;5034434;28;20013;-75
2022/02/14 09:01:47;;;;;;;6.30;3.20;;;;;;;;;;5041998;28;20035;-75
2022/02/14 09:04:13;;;;;;;6.97;2.55;;;;;;;;;;5033538;28;20090;-75
2022/02/14 09:06:42;;;;;;;6.25;2.58;;;;;;;;;;5017593;28;20025;-75
2022/02/14 09:09:08;;;;;;;10.00;3.47;;;;;;;;;;5034625;28;20034;-75
2022/02/14 09:11:34;;;;;;;11.68;2.85;;;;;;;;;;5039093;28;20148;-74
2022/02/14 09:14:00;;;;;;;10.68;3.10;;;;;;;;;;5044318;28;20170;-75
2022/02/14 09:16:28;;;;;;;7.32;2.75;;;;;;;;;;5040643;28;20084;-75
2022/02/14 09:18:54;;;;;;;4.57;2.70;;;;;;;;;;5022351;28;20060;-75
2022/02/14 09:21:20;;;;;;;6.78;2.83;;;;;;;;;;5035502;28;20565;-75
2022/02/14 09:23:48;;;;;;;6.47;3.05;;;;;;;;;;5040991;28;20029;-75
2022/02/14 09:26:17;;;;;;;12.13;2.42;;;;;;;;;;5023088;28;20079;-73
2022/02/14 09:28:43;;;;;;;9.15;2.97;;;;;;;;;;5041624;28;20028;-75
2022/02/14 09:31:10;;;;;;;11.73;2.60;;;;;;;;;;5039518;28;20047;-74
2022/02/14 09:33:36;;;;;;;9.57;2.50;;;;;;;;;;5038324;28;20171;-75
2022/02/14 09:36:02;;;;;;;5.75;2.60;;;;;;;;;;5041652;28;20021;-74
2022/02/14 09:38:28;;;;;;;7.70;2.70;;;;;;;;;;5022315;28;20033;-74
2022/02/14 09:40:54;;;;;;;6.22;2.65;;;;;;;;;;5037858;28;20496;-75
2022/02/14 09:43:20;;;;;;;8.70;3.30;;;;;;;;;;5024344;28;20051;-74
2022/02/14 09:45:46;;;;;;;8.93;2.67;;;;;;;;;;5036282;28;20029;-75
2022/02/14 09:48:17;;;;;;;9.50;3.47;;;;;;;;;;5037606;28;20031;-74
2022/02/14 09:50:46;;;;;;;4.93;2.20;;;;;;;;;;5023201;28;20199;-75
2022/02/14 09:53:15;;;;;;;7.18;2.85;;;;;;;;;;5014144;28;20609;-74
2022/02/14 09:55:43;;;;;;;8.13;2.30;;;;;;;;;;5033084;28;20041;-73
2022/02/14 09:58:09;;;;;;;7.97;3.05;;;;;;;;;;5033623;28;20275;-74
2022/02/14 10:00:36;;;;;;;4.47;2.50;;;;;;;;;;5029262;28;20484;-74
2022/02/14 10:03:10;;;;;;;9.05;2.65;;;;;;;;;;5041551;28;20468;-74
2022/02/14 10:05:53;;;;;;;8.50;3.30;;;;;;;;;;5035587;28;20716;-74
2022/02/14 10:08:23;;;;;;;4.72;2.22;;;;;;;;;;5029745;28;20041;-74
2022/02/14 10:10:50;;;;;;;6.13;2.88;;;;;;;;;;5048756;28;20052;-74
2022/02/14 10:13:34;;;;;;;8.73;3.45;;;;;;;;;;5026695;28;20493;-74
2022/02/14 10:16:06;;;;;;;6.95;2.70;;;;;;;;;;5038330;28;20074;-74
2022/02/14 10:18:34;;;;;;;4.93;2.47;;;;;;;;;;5016061;28;20033;-74
2022/02/14 10:21:23;;;;;;;6.30;2.30;;;;;;;;;;5023802;28;20108;-73
2022/02/14 10:24:04;;;;;;;;;;;;;;;;;;5040836;28;20590;-73
2022/02/14 10:26:35;;;;;;;9.80;2.53;;;;;;;;;;5044196;28;20591;-73
2022/02/14 10:29:20;;;;;;;5.65;2.30;;;;;;;;;;5026408;28;20025;-73
2022/02/14 10:31:50;;;;;;;6.57;2.33;;;;;;;;;;5034651;28;20068;-74
2022/02/14 10:34:17;;;;;;;4.65;2.10;;;;;;;;;;5041906;28;20036;-74
2022/02/14 10:36:45;;;;;;;6.65;2.10;;;;;;;;;;5035108;28;20040;-74
2022/02/14 10:39:20;;;;;;;9.25;2.30;;;;;;;;;;5043136;28;20116;-73
2022/02/14 10:41:59;;;;;;;6.05;2.90;;;;;;;;;;5037450;28;20358;-73
2022/02/14 10:47:16;;;;;;;5.15;2.25;;;;;;;;;;5031529;28;21675;-75
2022/02/14 10:49:43;;;;;;;5.13;1.95;;;;;;;;;;5010517;28;20021;-75
2022/02/14 10:52:13;;;;;;;8.25;2.42;;;;;;;;;;5029093;28;20040;-75
2022/02/14 10:54:49;;;;;;;5.30;2.08;;;;;;;;;;5029649;28;20046;-74
2022/02/14 10:57:27;;;;;;;6.75;2.00;;;;;;;;;;5025487;28;20044;-74
2022/02/14 11:00:10;;;;;;;6.35;1.95;;;;;;;;;;5040258;28;20051;-74
2022/02/14 11:02:42;;;;;;;5.55;1.90;;;;;;;;;;5013554;28;20370;-74
2022/02/14 11:05:08;;;;;;;5.35;1.90;;;;;;;;;;5033036;28;20030;-76
2022/02/14 11:07:35;;;;;;;6.90;2.00;;;;;;;;;;5021106;28;20127;-75
2022/02/14 11:10:03;;;;;;;6.45;2.38;;;;;;;;;;5033749;28;20043;-76
2022/02/14 11:12:34;;;;;;;4.20;1.85;;;;;;;;;;5031802;28;20410;-75
2022/02/14 11:15:07;;;;;;;3.90;1.90;;;;;;;;;;5020951;28;20029;-76
2022/02/14 11:17:38;;;;;;;3.72;1.58;;;;;;;;;;5034936;28;20033;-75
2022/02/14 11:20:08;;;;;;;4.15;1.77;;;;;;;;;;5040781;28;20025;-76
2022/02/14 11:22:40;;;;;;;7.25;2.33;;;;;;;;;;5038308;28;20499;-76
2022/02/14 11:25:08;;;;;;;4.70;2.55;;;;;;;;;;5022468;28;20033;-75
2022/02/14 11:27:38;;;;;;;4.65;2.35;;;;;;;;;;5016271;28;20407;-75
2022/02/14 11:30:14;;;;;;;5.15;2.35;;;;;;;;;;5035627;28;20018;-75
2022/02/14 11:32:40;;;;;;;7.82;2.30;;;;;;;;;;5042536;28;20028;-75
2022/02/14 11:35:17;;;;;;;10.82;2.65;;;;;;;;;;5039410;28;20029;-75
2022/02/14 11:37:59;;;;;;;5.18;1.80;;;;;;;;;;5042058;28;20397;-75
2022/02/14 11:40:40;;;;;;;5.07;2.13;;;;;;;;;;5034709;28;20090;-75
2022/02/14 11:43:19;;;;;;;5.03;2.92;;;;;;;;;;5039743;28;20079;-76
2022/02/14 11:46:24;;;;;;;6.40;2.13;;;;;;;;;;5011642;28;20025;-75
2022/02/14 11:49:12;;;;;;;5.47;2.10;;;;;;;;;;5031259;28;20095;-75
2022/02/14 11:51:53;;;;;;;6.07;2.00;;;;;;;;;;5031844;28;20655;-76
2022/02/14 11:54:40;;;;;;;2.75;2.00;;;;;;;;;;5032375;28;20056;-76
2022/02/14 11:57:15;;;;;;;10.13;2.47;;;;;;;;;;5029876;28;20044;-74
2022/02/14 11:59:44;;;;;;;5.63;2.25;;;;;;;;;;5030719;28;20029;-75
2022/02/14 12:02:11;;;;;;;3.72;1.83;;;;;;;;;;5035591;28;20047;-74
2022/02/14 12:04:40;;;;;;;6.70;2.60;;;;;;;;;;5044580;28;20039;-74
2022/02/14 12:07:36;;;;;;;6.30;2.30;;;;;;;;;;5014746;28;20501;-74
2022/02/14 12:10:27;;;;;;;4.97;2.40;;;;;;;;;;5035002;28;20526;-74
2022/02/14 12:12:54;;;;;;;5.90;2.30;;;;;;;;;;5033520;28;20500;-74
2022/02/14 12:27:57;;;;;;;4.97;2.13;;;;;;;;;;5056858;28;20051;-74
2022/02/14 12:30:23;;;;;;;11.48;3.58;;;;;;;;;;5072112;28;20111;-74
2022/02/14 12:33:00;;;;;;;4.60;2.15;;;;;;;;;;5070259;28;20490;-74
2022/02/14 12:35:42;;;;;;;10.27;2.42;;;;;;;;;;5066604;28;20025;-74
2022/02/14 12:38:09;;;;;;;4.88;2.65;;;;;;;;;;5069559;28;20028;-74
2022/02/14 12:41:10;;;;;;;5.05;1.92;;;;;;;;;;5051768;28;20028;-74
2022/02/14 12:43:38;;;;;;;8.80;2.63;;;;;;;;;;5049285;28;20423;-74
2022/02/14 12:46:22;;;;;;;9.77;2.63;;;;;;;;;;5068856;28;20059;-74
2022/02/14 12:48:55;;;;;;;6.20;2.58;;;;;;;;;;5071999;28;20093;-74
2022/02/14 12:51:28;;;;;;;5.13;2.10;;;;;;;;;;5069738;28;20056;-74
2022/02/14 12:54:00;;;;;;;8.68;2.20;;;;;;;;;;5070903;28;20040;-74
2022/02/14 12:56:29;;;;;;;4.68;2.00;;;;;;;;;;5072014;28;20434;-73
2022/02/14 12:59:09;;;;;;;9.35;2.40;;;;;;;;;;5069271;28;20021;-74
2022/02/14 13:01:37;;;;;;;4.63;1.88;;;;;;;;;;5069406;28;20490;-74
2022/02/14 13:04:05;;;;;;;7.07;3.15;;;;;;;;;;5068498;28;20025;-74
2022/02/14 13:06:44;;;;;;;4.15;2.00;;;;;;;;;;5068593;28;20361;-74
2022/02/14 13:09:26;;;;;;;5.35;1.90;;;;;;;;;;5067289;28;20029;-74
2022/02/14 13:11:57;;;;;;;4.65;2.92;;;;;;;;;;5068720;28;20031;-75
2022/02/14 13:14:36;;;;;;;4.90;3.10;;;;;;;;;;5070202;28;20024;-75
2022/02/14 13:17:05;;;;;;;8.88;2.10;;;;;;;;;;5065124;28;20020;-74
2022/02/14 13:19:33;;;;;;;4.30;1.95;;;;;;;;;;5049970;28;20498;-75
2022/02/14 13:21:59;;;;;;;7.95;1.80;;;;;;;;;;5049479;28;20115;-75
2022/02/14 13:24:30;;;;;;;8.30;1.98;;;;;;;;;;5049282;28;20029;-74
2022/02/14 13:27:09;;;;;;;4.38;2.20;;;;;;;;;;5064216;28;20036;-75
2022/02/14 13:29:39;;;;;;;15.55;7.57;;;;;;;;;;5067799;28;20059;-75
2022/02/14 13:32:06;;;;;;;6.70;3.33;;;;;;;;;;5052902;28;20067;-74
2022/02/14 13:34:32;;;;;;;5.55;1.70;;;;;;;;;;5067149;28;20029;-75
2022/02/14 13:37:00;;;;;;;4.28;1.50;;;;;;;;;;5069507;28;20400;-74
2022/02/14 13:39:33;;;;;;;5.47;2.03;;;;;;;;;;5068921;28;20031;-74
2022/02/14 13:41:59;;;;;;;4.18;2.40;;;;;;;;;;5061083;28;20117;-74
2022/02/14 13:44:27;;;;;;;3.83;1.42;;;;;;;;;;5073309;28;20559;-74
2022/02/14 13:46:55;;;;;;;2.33;1.30;;;;;;;;;;5069599;28;20123;-74
2022/02/14 13:49:35;;;;;;;5.63;2.58;;;;;;;;;;5068681;28;20031;-75
2022/02/14 13:52:01;;;;;;;6.97;3.10;;;;;;;;;;5069529;28;20116;-75
2022/02/14 13:54:26;;;;;;;3.78;1.40;;;;;;;;;;5067457;28;20107;-75
2022/02/14 13:56:52;;;;;;;6.43;1.92;;;;;;;;;;5067140;28;20028;-74
2022/02/14 13:59:27;;;;;;;5.85;2.28;;;;;;;;;;5068614;28;20116;-74
2022/02/14 14:02:09;;;;;;;14.10;5.60;;;;;;;;;;5065723;28;20389;-74
2022/02/14 14:04:35;;;;;;;9.18;4.05;;;;;;;;;;5068304;28;20021;-75
2022/02/14 14:07:07;;;;;;;10.43;4.13;;;;;;;;;;5067400;28;20078;-74
2022/02/14 14:10:02;;;;;;;7.18;3.83;;;;;;;;;;5066243;28;20028;-74
2022/02/14 14:12:29;;;;;;;5.45;1.50;;;;;;;;;;5044460;28;20036;-75
2022/02/14 14:14:56;;;;;;;4.53;2.15;;;;;;;;;;5067561;28;20024;-74
2022/02/14 14:17:25;;;;;;;3.92;2.05;;;;;;;;;;5047311;28;20036;-74
2022/02/14 14:19:56;;;;;;;4.78;1.63;;;;;;;;;;5065911;28;20032;-74
2022/02/14 14:22:23;;;;;;;4.15;1.60;;;;;;;;;;5070810;28;20024;-74
2022/02/14 14:24:52;;;;;;;4.68;1.20;;;;;;;;;;5070883;28;20506;-74
2022/02/14 14:27:18;;;;;;;4.35;1.70;;;;;;;;;;5069587;28;20597;-75
2022/02/14 14:29:43;;;;;;;4.65;1.98;;;;;;;;;;5070356;28;20051;-74
2022/02/14 14:32:11;;;;;;;2.75;1.60;;;;;;;;;;5067904;28;20451;-74
2022/02/14 14:34:37;;;;;;;4.00;2.00;;;;;;;;;;5068254;28;20024;-74
2022/02/14 14:37:03;;;;;;;4.10;2.70;;;;;;;;;;5053122;28;20031;-74
2022/02/14 14:39:29;;;;;;;3.80;1.70;;;;;;;;;;5050485;28;20024;-74
2022/02/14 14:41:54;;;;;;;4.40;1.85;;;;;;;;;;5067557;28;20398;-74
2022/02/14 14:44:20;;;;;;;8.13;2.85;;;;;;;;;;5051870;28;20040;-74
2022/02/14 14:46:47;;;;;;;3.35;2.00;;;;;;;;;;5049231;28;20059;-75
2022/02/14 14:49:15;;;;;;;2.22;1.45;;;;;;;;;;5066413;28;20082;-74
2022/02/14 14:51:40;;;;;;;2.95;1.98;;;;;;;;;;5067480;28;20039;-74
2022/02/14 14:54:06;;;;;;;5.15;2.60;;;;;;;;;;5051049;28;20028;-74
2022/02/14 14:56:33;;;;;;;5.25;2.08;;;;;;;;;;5067588;28;20039;-74
2022/02/14 14:58:59;;;;;;;4.07;1.90;;;;;;;;;;5066718;28;20020;-75
2022/02/14 15:01:24;;;;;;;2.72;1.50;;;;;;;;;;5065617;28;20042;-74
2022/02/14 15:03:50;;;;;;;4.45;1.95;;;;;;;;;;5066205;28;20074;-75
2022/02/14 15:06:18;;;;;;;3.83;2.03;;;;;;;;;;5046354;28;20074;-74
2022/02/14 15:08:45;;;;;;;5.80;1.80;;;;;;;;;;5046408;28;20024;-74
2022/02/14 15:11:11;;;;;;;4.55;1.85;;;;;;;;;;5064199;28;20043;-74
2022/02/14 15:13:37;;;;;;;4.07;1.90;;;;;;;;;;5067968;28;20024;-74
2022/02/14 15:16:03;;;;;;;5.18;2.13;;;;;;;;;;5045670;28;20119;-74
2022/02/14 15:18:28;;;;;;;5.15;2.67;;;;;;;;;;5066522;28;20040;-75
2022/02/14 15:20:54;;;;;;;4.85;2.35;;;;;;;;;;5066467;28;20017;-74